Time;durP1;ratioP1;P1;durP2;ratioP2;P2;SDS_P1;SDS_P2;PMS_P1;PMS_P2;Temp;Humidity;BMP_temperature;BMP_pressure;BME280_temperature;BME280_humidity;BME280_pressure;Samples;Min_cycle;Max_cycle;Signal;HPM_P1;HPM_P2
2022/02/19 00:01:00;;;;;;;5.83;1.77;;;;;;;7.27;76.26;98060.39;1716904;83;22330;-75
2022/02/19 00:03:26;;;;;;;1.80;1.30;;;;;;;7.34;76.00;98060.35;1716735;82;21705;-74
2022/02/19 00:05:53;;;;;;;5.67;1.77;;;;;;;7.36;75.67;98052.50;1716784;83;21761;-74
2022/02/19 00:08:20;;;;;;;5.03;1.90;;;;;;;7.36;75.45;98059.05;1716883;83;21082;-74
2022/02/19 00:10:47;;;;;;;5.45;2.02;;;;;;;7.35;75.36;98059.91;1717088;83;21571;-74
2022/02/19 00:13:14;;;;;;;4.22;1.57;;;;;;;7.35;75.26;98057.28;1716996;83;21054;-75
2022/02/19 00:15:40;;;;;;;4.53;1.80;;;;;;;7.34;75.08;98062.11;1717001;83;21742;-75
2022/02/19 00:18:07;;;;;;;5.95;1.75;;;;;;;7.34;74.97;98059.48;1716745;83;21067;-74
2022/02/19 00:20:34;;;;;;;4.33;1.62;;;;;;;7.34;74.90;98062.11;1716653;83;21592;-74
2022/02/19 00:23:00;;;;;;;6.03;1.60;;;;;;;7.32;74.83;98072.58;1717139;83;21117;-75
2022/02/19 00:25:27;;;;;;;5.60;1.80;;;;;;;7.34;74.86;98067.34;1717120;83;21579;-74
2022/02/19 00:27:54;;;;;;;3.75;1.35;;;;;;;7.36;74.90;98062.52;1717181;83;21767;-75
2022/02/19 00:30:20;;;;;;;5.92;1.60;;;;;;;7.39;74.84;98052.05;1716899;83;21652;-73
2022/02/19 00:32:48;;;;;;;5.03;1.42;;;;;;;7.44;74.80;98060.30;1717040;83;21160;-75
2022/02/19 00:35:15;;;;;;;5.95;1.80;;;;;;;7.48;74.82;98068.11;1717037;83;21175;-75
2022/02/19 00:37:42;;;;;;;2.65;1.22;;;;;;;7.50;74.82;98077.27;1717066;83;21070;-75
2022/02/19 00:40:10;;;;;;;3.98;1.85;;;;;;;7.52;74.69;98072.45;1716849;83;21813;-75
2022/02/19 00:42:37;;;;;;;6.05;1.85;;;;;;;7.55;74.56;98062.41;1716963;83;21058;-74
2022/02/19 00:45:05;;;;;;;3.37;1.37;;;;;;;7.57;74.40;98061.52;1716909;83;21087;-75
2022/02/19 00:47:32;;;;;;;3.35;1.12;;;;;;;7.55;74.15;98062.41;1717074;83;21250;-75
2022/02/19 00:49:58;;;;;;;4.45;1.45;;;;;;;7.51;74.03;98064.19;1716878;83;21239;-75
2022/02/19 00:52:25;;;;;;;3.50;1.50;;;;;;;7.49;73.91;98058.50;1716847;83;21819;-74
2022/02/19 00:54:52;;;;;;;4.90;1.70;;;;;;;7.42;73.68;98055.07;1716716;83;21576;-74
2022/02/19 00:57:18;;;;;;;3.92;1.65;;;;;;;7.38;73.57;98051.59;1717009;83;21146;-74
2022/02/19 00:59:45;;;;;;;5.97;1.60;;;;;;;7.32;73.34;98039.87;1717107;83;21062;-74
2022/02/19 01:02:12;;;;;;;4.08;1.90;;;;;;;7.23;73.06;98065.22;1716812;83;21087;-75
2022/02/19 01:04:38;;;;;;;5.65;2.08;;;;;;;7.16;72.74;98033.83;1716811;83;22607;-74
2022/02/19 01:07:05;;;;;;;4.60;1.60;;;;;;;7.10;72.42;98056.55;1716826;83;21075;-75
2022/02/19 01:09:32;;;;;;;2.95;1.67;;;;;;;7.02;72.07;98060.51;1716742;83;21075;-75
2022/02/19 01:11:58;;;;;;;3.75;1.65;;;;;;;6.99;71.94;98040.45;1716915;83;21055;-74
2022/02/19 01:14:25;;;;;;;3.33;1.70;;;;;;;6.98;71.81;98062.68;1716813;83;21668;-74
2022/02/19 01:16:52;;;;;;;4.70;2.50;;;;;;;6.94;71.52;98075.34;1717805;83;21813;-75
2022/02/19 01:19:18;;;;;;;4.40;1.42;;;;;;;6.93;71.33;98059.23;1720256;83;21137;-74
2022/02/19 01:21:45;;;;;;;6.65;1.50;;;;;;;6.98;71.17;98090.14;1719982;83;21638;-74
2022/02/19 01:24:12;;;;;;;6.45;2.83;;;;;;;7.08;71.10;98102.77;1720047;83;21123;-75
2022/02/19 01:26:39;;;;;;;5.00;1.77;;;;;;;7.12;70.92;98083.13;1720244;83;21097;-74
2022/02/19 01:29:05;;;;;;;5.00;1.40;;;;;;;7.13;70.77;98111.45;1720168;83;21764;-75
2022/02/19 01:31:32;;;;;;;5.87;1.55;;;;;;;7.10;70.31;98102.33;1720162;83;21552;-75
2022/02/19 01:33:59;;;;;;;5.47;1.15;;;;;;;7.06;70.16;98096.23;1720193;83;21129;-75
2022/02/19 01:36:25;;;;;;;3.17;1.50;;;;;;;6.97;69.92;98104.11;1720154;83;21181;-75
2022/02/19 01:38:52;;;;;;;4.17;2.40;;;;;;;6.90;69.74;98099.77;1720342;83;21082;-75
2022/02/19 01:41:19;;;;;;;5.15;1.70;;;;;;;6.87;69.63;98101.07;1719982;83;21733;-74
2022/02/19 01:43:45;;;;;;;2.45;1.32;;;;;;;6.75;69.57;98073.22;1720319;83;21470;-75
2022/02/19 01:46:12;;;;;;;2.67;1.40;;;;;;;6.80;69.38;98102.41;1720232;83;21334;-74
2022/02/19 01:48:39;;;;;;;3.00;1.72;;;;;;;6.79;69.38;98108.52;1720149;83;21074;-75
2022/02/19 01:51:07;;;;;;;2.85;1.80;;;;;;;6.82;69.30;98094.56;1720364;83;21079;-74
2022/02/19 01:53:33;;;;;;;3.67;1.82;;;;;;;6.86;69.04;98101.96;1720155;83;22715;-74
2022/02/19 01:56:00;;;;;;;6.00;1.85;;;;;;;6.83;68.86;98103.27;1720179;83;21023;-75
2022/02/19 01:58:27;;;;;;;2.50;1.67;;;;;;;6.74;68.68;98107.66;1720061;82;21162;-75
2022/02/19 02:00:53;;;;;;;3.80;1.72;;;;;;;6.67;68.59;98124.22;1720253;82;21086;-74
2022/02/19 02:03:20;;;;;;;5.28;2.08;;;;;;;6.60;68.44;98127.27;1720258;83;21058;-74
2022/02/19 02:05:46;;;;;;;6.87;2.67;;;;;;;6.61;68.56;98124.23;1720165;83;21752;-75
2022/02/19 02:08:13;;;;;;;2.50;1.57;;;;;;;6.67;68.50;98126.83;1720197;82;21078;-75
2022/02/19 02:10:40;;;;;;;3.67;1.40;;;;;;;6.71;68.28;98127.26;1720335;83;21078;-74
2022/02/19 02:13:06;;;;;;;3.08;1.37;;;;;;;6.69;68.05;98129.45;1720427;83;21156;-74
2022/02/19 02:15:33;;;;;;;3.00;1.47;;;;;;;6.65;67.86;98137.73;1720265;83;21098;-75
2022/02/19 02:18:00;;;;;;;2.25;1.12;;;;;;;6.56;67.91;98143.83;1718196;83;21774;-76
2022/02/19 02:20:27;;;;;;;1.52;1.00;;;;;;;6.50;68.13;98146.90;1716853;83;21004;-75
2022/02/19 02:22:54;;;;;;;3.20;1.07;;;;;;;6.42;68.38;98132.53;1717174;83;21097;-75
2022/02/19 02:25:29;;;;;;;3.45;1.40;;;;;;;6.34;68.60;98146.02;1716888;83;21752;-75
2022/02/19 02:27:56;;;;;;;2.55;1.32;;;;;;;6.27;68.73;98142.55;1716917;83;21738;-74
2022/02/19 02:30:23;;;;;;;3.60;1.65;;;;;;;6.23;68.85;98145.59;1716886;83;21814;-74
2022/02/19 02:32:50;;;;;;;2.70;1.30;;;;;;;6.21;68.86;98146.44;1716891;83;21568;-75
2022/02/19 02:35:17;;;;;;;3.35;1.85;;;;;;;6.16;68.91;98166.48;1716819;83;21082;-74
2022/02/19 02:37:43;;;;;;;2.60;1.20;;;;;;;6.10;68.98;98148.17;1716923;83;21074;-74
2022/02/19 02:40:11;;;;;;;2.70;1.45;;;;;;;6.08;69.05;98143.39;1716919;83;21564;-74
2022/02/19 02:42:38;;;;;;;4.42;1.62;;;;;;;6.06;69.10;98146.44;1716773;83;21777;-75
2022/02/19 02:45:06;;;;;;;2.40;1.20;;;;;;;6.05;68.83;98148.19;1716635;83;21054;-75
2022/02/19 02:47:33;;;;;;;3.62;1.62;;;;;;;6.06;68.64;98155.58;1717073;83;21089;-74
2022/02/19 02:49:59;;;;;;;4.97;1.80;;;;;;;6.11;68.46;98162.98;1716977;83;21067;-74
2022/02/19 02:52:26;;;;;;;4.40;1.57;;;;;;;6.13;68.08;98150.36;1716823;83;21627;-74
2022/02/19 02:54:53;;;;;;;4.75;1.60;;;;;;;6.19;67.96;98142.96;1717077;83;21822;-75
2022/02/19 02:57:19;;;;;;;4.55;1.27;;;;;;;6.22;67.71;98133.39;1716508;83;21009;-75
2022/02/19 02:59:46;;;;;;;3.00;1.42;;;;;;;6.21;67.49;98147.34;1716902;83;21074;-75
2022/02/19 03:02:13;;;;;;;5.10;1.40;;;;;;;6.20;67.47;98144.72;1717012;83;21123;-75
2022/02/19 03:04:39;;;;;;;2.80;0.93;;;;;;;6.18;67.27;98138.63;1716875;83;21070;-75
2022/02/19 03:07:06;;;;;;;4.50;1.50;;;;;;;6.16;67.11;98142.53;1716710;83;22577;-75
2022/02/19 03:09:33;;;;;;;2.02;1.22;;;;;;;6.14;66.98;98137.75;1716677;83;21119;-75
2022/02/19 03:11:59;;;;;;;4.25;1.27;;;;;;;6.16;67.11;98128.61;1716942;83;21079;-74
2022/02/19 03:14:26;;;;;;;4.47;1.25;;;;;;;6.19;67.19;98139.04;1716842;83;21647;-74
2022/02/19 03:16:52;;;;;;;5.67;1.40;;;;;;;6.19;67.39;98131.20;1717143;83;21067;-75
2022/02/19 03:19:19;;;;;;;4.03;1.17;;;;;;;6.16;67.45;98128.17;1722275;83;22281;-75
2022/02/19 03:21:46;;;;;;;4.90;1.35;;;;;;;6.11;67.40;98135.56;1722263;83;21656;-74
2022/02/19 03:24:13;;;;;;;3.22;1.22;;;;;;;6.08;67.44;98149.92;1722239;83;21042;-74
2022/02/19 03:26:39;;;;;;;7.12;1.30;;;;;;;6.09;67.27;98148.62;1722250;83;21128;-74
2022/02/19 03:29:06;;;;;;;4.47;1.52;;;;;;;6.13;67.30;98158.63;1722388;83;21092;-74
2022/02/19 03:31:32;;;;;;;6.33;1.30;;;;;;;6.16;67.47;98160.82;1722235;83;22561;-74
2022/02/19 03:33:59;;;;;;;2.95;0.90;;;;;;;6.13;67.65;98171.25;1722137;83;21626;-74
2022/02/19 03:36:26;;;;;;;3.10;0.88;;;;;;;6.07;67.62;98158.64;1722285;83;21133;-74
2022/02/19 03:38:52;;;;;;;4.40;1.30;;;;;;;6.02;67.71;98175.17;1722402;83;21094;-74
2022/02/19 03:41:19;;;;;;;6.58;1.20;;;;;;;6.00;67.81;98163.83;1722019;83;21054;-74
2022/02/19 03:43:45;;;;;;;3.55;1.32;;;;;;;6.00;67.82;98173.41;1722274;83;21233;-74
2022/02/19 03:46:12;;;;;;;4.28;1.20;;;;;;;5.99;67.73;98169.94;1722224;83;21074;-74
2022/02/19 03:48:39;;;;;;;5.50;1.40;;;;;;;5.98;67.79;98145.98;1722122;83;21508;-75
2022/02/19 03:51:05;;;;;;;6.92;1.55;;;;;;;5.95;67.69;98152.53;1722254;83;21059;-75
2022/02/19 03:53:32;;;;;;;4.00;1.20;;;;;;;5.95;67.73;98152.91;1722168;83;21105;-74
2022/02/19 03:55:58;;;;;;;6.25;1.40;;;;;;;5.95;67.65;98160.36;1722325;83;21768;-75
2022/02/19 03:58:25;;;;;;;9.98;1.50;;;;;;;5.98;67.66;98163.40;1722348;83;21102;-75
2022/02/19 04:00:52;;;;;;;8.20;1.62;;;;;;;6.01;67.60;98153.83;1722392;83;21094;-74
2022/02/19 04:03:18;;;;;;;11.20;2.20;;;;;;;6.04;67.50;98172.54;1722424;83;21122;-74
2022/02/19 04:05:46;;;;;;;5.75;1.60;;;;;;;6.06;67.50;98148.61;1722421;83;21062;-76
2022/02/19 04:08:13;;;;;;;6.62;1.60;;;;;;;6.07;67.48;98149.50;1722235;83;21838;-76
2022/02/19 04:10:40;;;;;;;5.83;1.62;;;;;;;6.07;67.43;98153.41;1722060;83;21074;-76
2022/02/19 04:13:06;;;;;;;5.85;1.75;;;;;;;6.06;67.12;98146.44;1722276;83;21062;-76
2022/02/19 04:15:33;;;;;;;7.05;1.98;;;;;;;6.06;67.05;98140.77;1722229;83;22284;-76
2022/02/19 04:18:00;;;;;;;9.00;1.95;;;;;;;6.09;66.69;98152.53;1722144;83;21077;-76
2022/02/19 04:20:27;;;;;;;9.80;2.05;;;;;;;6.14;66.44;98120.77;1722219;83;22648;-76
2022/02/19 04:22:56;;;;;;;8.73;1.72;;;;;;;6.16;66.07;98139.92;1722488;83;21062;-76
2022/02/19 04:25:28;;;;;;;5.72;1.60;;;;;;;6.22;65.73;98137.75;1722197;83;21046;-76
2022/02/19 04:27:55;;;;;;;7.55;1.95;;;;;;;6.29;65.24;98115.98;1722370;82;21129;-76
2022/02/19 04:30:22;;;;;;;7.33;1.98;;;;;;;6.37;65.25;98131.66;1722105;83;21085;-76
2022/02/19 04:32:49;;;;;;;9.48;1.90;;;;;;;6.41;64.97;98097.67;1722371;83;21976;-76
2022/02/19 04:35:17;;;;;;;12.30;1.82;;;;;;;6.49;64.66;98108.56;1722272;83;21089;-76
2022/02/19 04:37:43;;;;;;;8.23;2.08;;;;;;;6.54;64.50;98102.90;1722258;83;21102;-76
2022/02/19 04:40:13;;;;;;;5.33;2.00;;;;;;;6.55;64.58;98094.16;1722244;83;21067;-76
2022/02/19 04:42:40;;;;;;;6.45;1.92;;;;;;;6.51;64.11;98091.12;1721759;83;21075;-76
2022/02/19 04:45:08;;;;;;;7.12;2.05;;;;;;;6.58;63.96;98116.39;1722347;83;22612;-76
2022/02/19 04:47:35;;;;;;;12.20;2.10;;;;;;;6.60;63.85;98116.81;1722369;83;21379;-76
2022/02/19 04:50:01;;;;;;;5.97;1.40;;;;;;;6.65;63.71;98107.67;1722313;83;21548;-75
2022/02/19 04:52:28;;;;;;;6.60;1.40;;;;;;;6.71;63.42;98113.33;1722307;83;21655;-75
2022/02/19 04:54:55;;;;;;;5.00;1.37;;;;;;;6.76;63.19;98110.27;1722305;83;21062;-76
2022/02/19 04:57:21;;;;;;;5.83;1.85;;;;;;;6.77;63.07;98118.09;1722381;83;21768;-76
2022/02/19 04:59:48;;;;;;;7.42;1.82;;;;;;;6.80;63.08;98118.09;1722420;83;21078;-76
2022/02/19 05:02:15;;;;;;;8.18;1.82;;;;;;;6.81;62.80;98115.03;1722614;82;21126;-76
2022/02/19 05:04:41;;;;;;;6.10;1.22;;;;;;;6.83;62.65;98126.80;1722749;83;21066;-75
2022/02/19 05:07:08;;;;;;;8.85;1.75;;;;;;;6.80;62.83;98127.69;1722836;83;21054;-76
2022/02/19 05:09:34;;;;;;;5.92;1.60;;;;;;;6.75;62.89;98125.51;1722585;83;21595;-76
2022/02/19 05:12:01;;;;;;;4.08;1.60;;;;;;;6.71;62.96;98144.25;1722586;83;21034;-75
2022/02/19 05:14:28;;;;;;;5.85;1.67;;;;;;;6.69;63.08;98160.82;1722561;83;21058;-76
2022/02/19 05:16:54;;;;;;;6.90;1.62;;;;;;;6.63;63.59;98169.53;1722648;83;21082;-76
2022/02/19 05:19:21;;;;;;;8.58;1.72;;;;;;;6.53;64.05;98178.23;1718181;83;21023;-76
2022/02/19 05:21:48;;;;;;;8.68;2.40;;;;;;;6.38;64.22;98194.37;1716605;83;21831;-75
2022/02/19 05:24:15;;;;;;;7.40;1.82;;;;;;;6.26;64.44;98172.58;1716991;83;21301;-76
2022/02/19 05:26:41;;;;;;;8.28;1.90;;;;;;;6.14;64.49;98165.62;1716876;83;21062;-76
2022/02/19 05:29:08;;;;;;;7.47;1.82;;;;;;;6.00;64.66;98166.44;1717067;83;21573;-76
2022/02/19 05:31:35;;;;;;;8.78;1.95;;;;;;;5.95;64.84;98152.91;1717059;83;21078;-76
2022/02/19 05:34:02;;;;;;;8.30;1.75;;;;;;;5.92;64.86;98182.50;1716999;83;21971;-76
2022/02/19 05:36:29;;;;;;;7.00;1.65;;;;;;;5.90;64.93;98169.02;1717007;83;21019;-76
2022/02/19 05:39:01;;;;;;;8.43;1.92;;;;;;;5.88;65.05;98173.38;1717329;83;21110;-76
2022/02/19 05:41:24;;;;;;;9.63;2.22;;;;;;;5.88;65.12;98157.70;1716530;83;21510;-76
2022/02/19 05:43:51;;;;;;;7.40;1.92;;;;;;;5.89;65.31;98173.79;1717547;83;21062;-75
2022/02/19 05:46:17;;;;;;;7.12;2.80;;;;;;;5.89;65.29;98181.63;1717449;83;21687;-75
2022/02/19 05:48:44;;;;;;;9.65;2.72;;;;;;;5.90;65.22;98167.27;1717254;83;21113;-76
2022/02/19 05:51:11;;;;;;;10.38;2.90;;;;;;;5.90;65.15;98149.44;1717261;83;21086;-76
2022/02/19 05:53:37;;;;;;;7.55;1.82;;;;;;;5.89;65.17;98165.52;1717129;83;21070;-76
2022/02/19 05:56:04;;;;;;;9.85;2.15;;;;;;;5.88;65.03;98150.73;1717173;83;21151;-76
2022/02/19 05:58:31;;;;;;;7.90;2.12;;;;;;;5.87;64.86;98170.30;1716946;83;22540;-76
2022/02/19 06:01:01;;;;;;;9.95;2.35;;;;;;;5.87;64.92;98167.70;1717222;83;21055;-75
2022/02/19 06:03:26;;;;;;;8.60;2.27;;;;;;;5.87;65.00;98157.25;1716777;83;21102;-76
2022/02/19 06:05:53;;;;;;;13.00;2.67;;;;;;;5.88;64.94;98157.27;1717149;83;21722;-76
2022/02/19 06:08:19;;;;;;;8.65;2.10;;;;;;;5.85;64.74;98146.36;1717015;83;21068;-75
2022/02/19 06:10:46;;;;;;;13.53;2.95;;;;;;;5.83;64.62;98142.02;1716982;83;21745;-75
2022/02/19 06:13:13;;;;;;;12.78;2.20;;;;;;;5.78;64.59;98134.60;1717096;83;21058;-74
2022/02/19 06:15:39;;;;;;;4.83;1.90;;;;;;;5.76;64.51;98116.77;1717038;83;21054;-75
2022/02/19 06:18:06;;;;;;;13.22;2.20;;;;;;;5.74;64.31;98123.28;1716823;83;21047;-74
2022/02/19 06:20:33;;;;;;;8.10;1.52;;;;;;;5.79;64.30;98112.42;1716648;83;21083;-75
2022/02/19 06:23:00;;;;;;;11.20;3.17;;;;;;;5.82;64.03;98106.36;1716902;83;21715;-74
2022/02/19 06:25:27;;;;;;;7.15;2.05;;;;;;;5.88;64.13;98121.16;1716772;83;21066;-74
2022/02/19 06:27:54;;;;;;;6.53;1.90;;;;;;;5.97;64.04;98112.93;1717008;83;21104;-75
2022/02/19 06:30:20;;;;;;;7.65;2.25;;;;;;;6.11;63.79;98112.06;1716712;83;21135;-75
2022/02/19 06:32:47;;;;;;;11.15;2.22;;;;;;;6.22;63.72;98121.63;1716802;83;21066;-74
2022/02/19 06:35:14;;;;;;;12.47;1.80;;;;;;;6.33;63.74;98111.19;1716789;83;22555;-75
2022/02/19 06:37:45;;;;;;;3.72;1.25;;;;;;;6.43;63.55;98119.44;1716755;83;21583;-75
2022/02/19 06:40:14;;;;;;;7.42;1.85;;;;;;;6.50;63.30;98128.16;1716983;83;21110;-75
2022/02/19 06:42:40;;;;;;;6.08;1.57;;;;;;;6.57;63.02;98131.66;1716614;83;21102;-75
2022/02/19 06:45:07;;;;;;;5.42;1.85;;;;;;;6.58;63.00;98119.86;1716818;83;21043;-75
2022/02/19 06:47:34;;;;;;;9.70;1.82;;;;;;;6.58;63.01;98138.16;1716783;83;21926;-75
2022/02/19 06:50:03;;;;;;;8.80;2.08;;;;;;;6.56;63.03;98129.45;1716887;83;21075;-76
2022/02/19 06:52:29;;;;;;;6.97;2.05;;;;;;;6.50;63.40;98136.45;1716732;83;21131;-74
2022/02/19 06:54:56;;;;;;;6.17;1.90;;;;;;;6.35;63.79;98147.33;1716751;83;21587;-74
2022/02/19 06:57:23;;;;;;;5.53;2.10;;;;;;;6.23;63.90;98129.92;1712212;83;21129;-74
2022/02/19 06:59:50;;;;;;;5.03;1.62;;;;;;;6.15;64.15;98140.78;1717069;83;21834;-74
2022/02/19 07:02:17;;;;;;;4.25;1.32;;;;;;;6.09;64.37;98119.03;1717061;83;21113;-75
2022/02/19 07:04:45;;;;;;;7.03;2.10;;;;;;;5.94;64.70;98144.66;1716851;83;21623;-75
2022/02/19 07:07:14;;;;;;;8.80;2.02;;;;;;;5.88;65.14;98136.82;1716857;83;22292;-74
2022/02/19 07:09:40;;;;;;;6.58;1.45;;;;;;;5.82;65.29;98138.98;1716512;83;21645;-75
2022/02/19 07:12:08;;;;;;;7.28;1.67;;;;;;;5.75;65.52;98130.70;1717210;83;21944;-74
2022/02/19 07:14:35;;;;;;;8.58;2.00;;;;;;;5.64;65.77;98161.98;1716746;83;21080;-74
2022/02/19 07:17:05;;;;;;;11.25;2.62;;;;;;;5.61;66.22;98139.78;1716915;83;21086;-74
2022/02/19 07:19:36;;;;;;;5.22;2.30;;;;;;;5.55;66.31;98165.42;1716903;83;21051;-75
2022/02/19 07:22:05;;;;;;;9.25;3.92;;;;;;;5.56;66.67;98153.27;1716981;83;21082;-75
2022/02/19 07:24:32;;;;;;;5.35;2.50;;;;;;;5.53;66.99;98162.38;1716868;83;22784;-74
2022/02/19 07:26:59;;;;;;;11.48;4.35;;;;;;;5.47;67.25;98158.02;1716839;83;21059;-75
2022/02/19 07:29:26;;;;;;;8.40;3.75;;;;;;;5.44;67.64;98148.86;1716889;83;21098;-75
2022/02/19 07:31:52;;;;;;;9.98;5.58;;;;;;;5.39;68.17;98167.12;1716951;83;21646;-74
2022/02/19 07:34:19;;;;;;;11.57;3.05;;;;;;;5.39;68.43;98176.25;1717078;83;21141;-74
2022/02/19 07:36:46;;;;;;;5.55;2.60;;;;;;;5.42;68.45;98159.72;1716696;83;21746;-74
2022/02/19 07:39:12;;;;;;;5.45;3.08;;;;;;;5.38;68.46;98171.02;1716966;83;21067;-75
2022/02/19 07:41:39;;;;;;;7.40;4.28;;;;;;;5.28;68.73;98144.47;1716636;83;21051;-74
2022/02/19 07:44:06;;;;;;;15.45;10.53;;;;;;;5.23;69.01;98170.07;1716506;83;21141;-75
2022/02/19 07:46:33;;;;;;;6.42;3.70;;;;;;;5.25;69.46;98172.28;1716847;83;21166;-74
2022/02/19 07:58:18;;;;;;;7.85;4.40;;;;;;;5.25;69.41;98160.55;1716849;83;21754;-74
2022/02/19 07:59:46;;;;;;;9.10;3.00;;;;;;;5.02;70.37;98168.23;1716803;83;21082;-75
2022/02/19 08:02:13;;;;;;;6.87;2.47;;;;;;;4.97;70.52;98175.59;1716998;83;21770;-74
2022/02/19 08:04:40;;;;;;;6.33;2.00;;;;;;;4.97;70.84;98208.17;1716949;83;21398;-75
2022/02/19 08:07:06;;;;;;;5.00;2.27;;;;;;;4.91;70.76;98188.59;1716954;83;21110;-74
2022/02/19 08:09:33;;;;;;;2.95;1.92;;;;;;;4.85;74.24;98192.03;1716722;83;21137;-74
2022/02/19 08:11:59;;;;;;;2.27;1.07;;;;;;;4.79;75.57;98224.14;1716927;83;21576;-74
2022/02/19 08:14:26;;;;;;;3.50;2.05;;;;;;;4.81;74.58;98241.09;1716792;83;22465;-75
2022/02/19 08:16:53;;;;;;;2.92;1.32;;;;;;;4.85;73.25;98249.38;1716769;83;21078;-74
2022/02/19 08:19:20;;;;;;;2.60;1.10;;;;;;;4.91;73.11;98246.80;1718424;83;21038;-74
2022/02/19 08:21:46;;;;;;;7.55;2.60;;;;;;;4.95;72.91;98249.87;1721838;83;21726;-75
2022/02/19 08:24:13;;;;;;;5.45;3.30;;;;;;;4.98;72.85;98246.43;1722390;83;21352;-75
2022/02/19 08:26:40;;;;;;;8.00;5.40;;;;;;;5.05;74.74;98272.99;1722240;83;21744;-74
2022/02/19 08:29:08;;;;;;;7.50;4.00;;;;;;;5.22;73.63;98283.09;1722446;83;21525;-74
2022/02/19 08:31:36;;;;;;;3.90;2.60;;;;;;;5.37;73.16;98287.55;1722306;83;21604;-75
2022/02/19 08:34:03;;;;;;;4.12;2.20;;;;;;;5.45;73.07;98280.63;1722333;83;21157;-75
2022/02/19 08:36:30;;;;;;;1.60;1.30;;;;;;;5.59;72.95;98290.26;1722204;83;21103;-75
2022/02/19 08:38:56;;;;;;;5.95;1.27;;;;;;;5.71;73.32;98298.16;1722360;83;22419;-75
2022/02/19 08:41:23;;;;;;;1.85;1.15;;;;;;;5.84;72.76;98319.98;1722429;83;21030;-76
2022/02/19 08:43:50;;;;;;;1.65;1.00;;;;;;;5.74;72.19;98309.05;1722139;83;21063;-75
2022/02/19 08:46:17;;;;;;;2.08;1.10;;;;;;;5.85;72.26;98328.23;1722382;83;21632;-76
2022/02/19 08:48:44;;;;;;;3.10;1.17;;;;;;;5.98;72.32;98344.88;1695859;83;21094;-75
2022/02/19 08:51:11;;;;;;;2.22;1.10;;;;;;;6.19;72.29;98355.44;1722505;83;22621;-75
2022/02/19 08:53:37;;;;;;;3.12;1.30;;;;;;;6.31;71.84;98357.20;1722287;83;21038;-74
2022/02/19 08:56:04;;;;;;;2.90;1.10;;;;;;;6.45;71.69;98368.14;1722344;82;21081;-75
2022/02/19 08:58:31;;;;;;;3.17;0.80;;;;;;;6.53;71.62;98386.91;1722139;83;21053;-75
2022/02/19 09:00:58;;;;;;;1.75;1.40;;;;;;;6.61;71.47;98388.23;1722189;83;21062;-74
2022/02/19 09:03:25;;;;;;;2.45;1.22;;;;;;;6.54;71.06;98399.09;1722261;83;22725;-74
2022/02/19 09:05:51;;;;;;;2.70;1.50;;;;;;;6.40;70.82;98403.38;1722259;83;21117;-74
2022/02/19 09:08:18;;;;;;;4.40;2.90;;;;;;;6.24;72.05;98412.91;1722372;83;21563;-74
2022/02/19 09:10:45;;;;;;;9.65;4.17;;;;;;;6.08;70.84;98416.30;1722227;83;21163;-74
2022/02/19 09:13:11;;;;;;;12.47;7.47;;;;;;;5.96;71.08;98428.42;1722279;83;21038;-74
2022/02/19 09:15:38;;;;;;;20.48;12.93;;;;;;;5.92;71.05;98429.23;1722314;83;22363;-75
2022/02/19 09:18:07;;;;;;;6.65;4.60;;;;;;;5.85;71.06;98453.55;1722363;83;21058;-75
2022/02/19 09:20:35;;;;;;;4.35;3.95;;;;;;;5.87;71.63;98462.71;1721985;83;21111;-74
2022/02/19 09:23:02;;;;;;;5.10;2.77;;;;;;;5.90;71.48;98464.91;1722464;83;21090;-74
2022/02/19 09:25:29;;;;;;;4.67;3.15;;;;;;;5.88;71.25;98471.86;1722124;83;21078;-75
2022/02/19 09:27:56;;;;;;;8.25;5.87;;;;;;;5.90;71.37;98465.36;1722459;83;21671;-75
2022/02/19 09:30:23;;;;;;;4.50;2.77;;;;;;;5.98;71.42;98472.83;1722412;83;21544;-74
2022/02/19 09:32:50;;;;;;;5.00;3.05;;;;;;;6.03;71.51;98481.58;1722658;83;21113;-75
2022/02/19 09:35:17;;;;;;;6.72;3.77;;;;;;;6.09;71.43;98497.28;1722454;83;21007;-74
2022/02/19 09:37:43;;;;;;;11.10;6.47;;;;;;;6.09;71.25;98478.99;1722291;83;21051;-75
2022/02/19 09:40:10;;;;;;;2.95;2.05;;;;;;;6.07;72.19;98522.52;1722537;83;21733;-75
2022/02/19 09:42:37;;;;;;;3.00;2.37;;;;;;;6.12;72.12;98528.66;1722239;83;21062;-74
2022/02/19 09:45:07;;;;;;;3.08;1.40;;;;;;;6.20;71.76;98524.78;1722468;83;21074;-74
2022/02/19 09:47:34;;;;;;;3.67;2.83;;;;;;;6.32;71.46;98536.60;1719546;83;21074;-74
2022/02/19 09:50:01;;;;;;;4.80;3.42;;;;;;;6.44;71.41;98531.91;1722614;83;22278;-74
2022/02/19 09:52:28;;;;;;;7.30;3.58;;;;;;;6.55;71.41;98539.78;1722420;83;21883;-74
2022/02/19 09:54:59;;;;;;;2.22;1.60;;;;;;;6.73;71.40;98522.89;1722405;83;21077;-74
2022/02/19 09:57:26;;;;;;;6.45;3.92;;;;;;;6.92;71.03;98555.22;1722413;83;21580;-74
2022/02/19 09:59:52;;;;;;;4.28;2.40;;;;;;;7.03;70.76;98543.94;1722280;83;21671;-75
2022/02/19 10:02:31;;;;;;;3.25;2.40;;;;;;;7.14;70.44;98555.32;1722539;82;21754;-74
2022/02/19 10:05:13;;;;;;;3.80;1.60;;;;;;;7.18;69.92;98560.55;1697570;83;21774;-74
2022/02/19 10:07:41;;;;;;;3.22;1.57;;;;;;;7.14;69.58;98573.63;1722007;83;21493;-74
2022/02/19 10:10:10;;;;;;;4.87;1.75;;;;;;;7.16;69.67;98579.74;1722496;83;21626;-74
2022/02/19 10:12:47;;;;;;;2.12;1.40;;;;;;;7.17;69.14;98578.45;1719547;83;21552;-74
2022/02/19 10:15:13;;;;;;;4.05;1.07;;;;;;;7.28;69.29;98600.73;1722707;82;21074;-75
2022/02/19 10:17:40;;;;;;;2.87;1.37;;;;;;;7.36;68.63;98599.45;1722483;83;21784;-75
2022/02/19 10:20:08;;;;;;;3.02;1.32;;;;;;;7.35;68.42;98596.38;1720267;83;21066;-74
2022/02/19 10:22:43;;;;;;;4.45;1.72;;;;;;;7.34;68.25;98605.98;1716883;83;21066;-75
2022/02/19 10:25:14;;;;;;;2.27;1.45;;;;;;;7.32;68.34;98620.81;1717008;83;21324;-74
2022/02/19 10:27:45;;;;;;;2.33;1.22;;;;;;;7.36;68.36;98641.33;1717200;83;21047;-75
2022/02/19 10:30:20;;;;;;;2.70;0.85;;;;;;;7.33;70.23;98646.09;1717424;83;22994;-75
2022/02/19 10:32:54;;;;;;;4.47;1.05;;;;;;;7.29;70.76;98651.32;1716585;83;21118;-75
2022/02/19 10:35:22;;;;;;;;;;;;;;;7.18;70.18;98676.98;1719660;83;21105;-75
2022/02/19 10:37:50;;;;;;;4.08;1.40;;;;;;;7.12;70.66;98694.41;1716286;83;20365;-75
2022/02/19 10:40:40;;;;;;;6.42;1.62;;;;;;;7.13;69.47;98711.84;1717241;83;21027;-75
2022/02/19 10:43:08;;;;;;;5.12;1.95;;;;;;;7.12;69.71;98699.64;1717019;83;21702;-74
2022/02/19 10:45:37;;;;;;;3.47;1.95;;;;;;;7.06;69.25;98703.09;1716965;83;21079;-75
2022/02/19 10:48:14;;;;;;;8.50;2.10;;;;;;;7.03;69.26;98730.97;1716960;83;21047;-75
2022/02/19 10:50:43;;;;;;;4.67;1.50;;;;;;;6.96;69.20;98751.87;1716446;83;21134;-75
2022/02/19 10:53:10;;;;;;;3.70;1.55;;;;;;;6.88;68.80;98745.69;1716897;83;21168;-74
2022/02/19 10:55:37;;;;;;;5.12;1.60;;;;;;;6.82;69.17;98753.48;1712131;83;21760;-74
2022/02/19 10:58:07;;;;;;;5.92;1.60;;;;;;;6.79;68.91;98760.89;1716958;83;21043;-74
2022/02/19 11:00:35;;;;;;;5.35;1.70;;;;;;;6.74;69.15;98773.05;1717173;83;21238;-75
2022/02/19 11:03:03;;;;;;;3.65;1.40;;;;;;;6.61;68.83;98772.05;1717149;83;21208;-75
2022/02/19 11:05:29;;;;;;;5.80;1.82;;;;;;;6.53;68.94;98779.37;1717249;83;21591;-75
2022/02/19 11:07:56;;;;;;;3.30;1.05;;;;;;;6.55;69.03;98772.41;1717048;83;21797;-75
2022/02/19 11:10:22;;;;;;;2.50;1.10;;;;;;;6.58;68.85;98791.62;1717061;83;21538;-75
2022/02/19 11:12:49;;;;;;;4.20;2.35;;;;;;;6.64;69.09;98796.47;1716923;83;21086;-75
2022/02/19 11:15:19;;;;;;;3.87;1.60;;;;;;;6.75;69.04;98797.44;1716815;83;21110;-75
2022/02/19 11:17:49;;;;;;;5.55;1.62;;;;;;;6.75;68.91;98833.61;1716941;83;21086;-75
2022/02/19 11:20:16;;;;;;;4.42;2.27;;;;;;;6.67;68.46;98839.64;1716809;83;21668;-75
2022/02/19 11:22:43;;;;;;;3.05;1.15;;;;;;;6.54;68.46;98843.87;1716510;83;21083;-75
2022/02/19 11:25:33;;;;;;;6.08;1.70;;;;;;;6.40;68.62;98856.36;1716866;83;21078;-75
2022/02/19 11:28:06;;;;;;;3.00;1.45;;;;;;;6.25;68.78;98864.43;1623437;87;21110;-75
2022/02/19 11:30:52;;;;;;;7.33;1.95;;;;;;;6.07;69.29;98889.48;1621104;87;21107;-75
2022/02/19 11:33:18;;;;;;;3.83;1.60;;;;;;;6.06;69.59;98881.17;1620847;88;21952;-75
2022/02/19 11:35:46;;;;;;;3.52;1.87;;;;;;;6.27;70.07;98875.78;1620750;88;21211;-75
2022/02/19 11:38:32;;;;;;;7.45;1.80;;;;;;;6.59;70.14;98874.86;1599680;88;21175;-75
2022/02/19 11:41:01;;;;;;;8.10;2.47;;;;;;;6.84;69.74;98890.36;1620970;88;21613;-76
2022/02/19 11:43:45;;;;;;;8.35;3.10;;;;;;;6.99;69.25;98901.41;1620960;88;21127;-75
2022/02/19 11:46:17;;;;;;;7.62;2.37;;;;;;;6.99;68.42;98912.73;1621055;87;22276;-75
2022/02/19 11:48:45;;;;;;;5.70;2.17;;;;;;;6.98;68.14;98907.48;1618540;88;21150;-75
2022/02/19 11:51:27;;;;;;;6.17;1.92;;;;;;;6.97;67.76;98930.60;1620986;88;21144;-75